• Join FlightAware (Why Join?)
  • Login
  • US Flag GB Flag 
17:17 EDT


 

Airport Tracker/Info


-or-


 

Live Flight TrackerFlight Track Log ✈ UAL3740 ✈ 12-Apr-2013 ✈ KIAD - KPVD

Flight Track Log - Related Links

Times and Time Zones

All times are in EDT time to prevent confusion due to time zone crossing. See the UAL3740 flight status page for this flight to view local times or setup timezone preferences in your user account.

Time Position Orientation Groundspeed Altitude Reporting Facility
EDT Latitude Longitude Course Direction KTS MPH feet Rate Location/Type
08:33 38.9667 -77.5167 314° West 196 226 2,700  Level Potomac TRACON
08:34 39.0167 -77.5833 314° West 260 299 5,000 2,880 Climbing Potomac TRACON
08:35 39.0833 -77.6167 339° North 288 331 8,200 2,460 Climbing Potomac TRACON
08:36 39.1667 -77.6167 360° North 342 394 10,000 900 Climbing Potomac TRACON
08:37 39.2000 -77.5167 67° East 396 456 10,000  Level Potomac TRACON
08:38 39.2000 -77.3667 90° East 386 444 10,100 1,320 Climbing Potomac TRACON
08:39 39.1667 -77.2500 110° East 383 441 12,700 2,220 Climbing Potomac TRACON
08:41 39.1286 -76.9508 99° East 390 449 17,100 2,040 Climbing Washington Center
08:42 39.1344 -76.8039 87° East 395 455 19,200 1,860 Climbing Washington Center
08:43 39.1381 -76.6539 88° East 405 466 20,900 1,620 Climbing Washington Center
08:44 39.1433 -76.4989 87° East 417 480 22,500 1,020 Climbing Washington Center
08:45 39.1486 -76.3383 88° East 430 495 23,000 240 Climbing Washington Center
08:46 39.1578 -76.1750 86° East 449 517 23,000 60 Level Washington Center
08:47 39.1772 -76.0039 82° East 464 534 23,200 900 Climbing Washington Center
08:48 39.2194 -75.8433 71° East 463 533 24,900 1,500 Climbing Washington Center
08:49 39.3175 -75.7178 45° Northeast 457 526 26,300 1,500 Climbing Washington Center
08:50 39.4156 -75.5917 45° Northeast 470 541 27,900 1,380 Climbing Washington Center
08:51 39.5156 -75.4650 44° Northeast 486 559 29,100 1,560 Climbing Washington Center
08:52 39.6133 -75.3383 45° Northeast 497 572 31,100 1,800 Climbing Washington Center
08:53 39.7067 -75.2111 46° Northeast 484 557 32,800 960 Climbing Washington Center
08:54 39.7733 -75.1086 50° Northeast 499 574 33,000 60 Climbing New York Center
08:55 39.8700 -74.9714 47° Northeast 518 596 33,000  Level New York Center
08:56 39.9689 -74.8200 50° Northeast 518 596 33,000  Level New York Center
08:57 40.0350 -74.6531 63° Northeast 503 579 33,000  Level New York Center
08:58 40.0986 -74.4939 62° Northeast 495 570 33,000  Level New York Center
08:59 40.1642 -74.3264 63° Northeast 505 581 33,000  Level New York Center
09:01 40.3083 -73.9586 63° Northeast 493 567 33,000 -360 Level Boston Center
09:02 40.3708 -73.7964 63° Northeast 498 573 32,000 -1,560 Descending Boston Center
09:03 40.4267 -73.6369 65° Northeast 515 593 29,900 -2,160 Descending Boston Center
09:04 40.4867 -73.4742 64° Northeast 515 593 27,700 -2,040 Descending Boston Center
09:05 40.5464 -73.3194 63° Northeast 515 593 26,000 -1,680 Descending Boston Center
09:06 40.6017 -73.1700 64° Northeast 452 520 24,400 -1,740 Descending Boston Center
09:07 40.6589 -73.0200 63° Northeast 445 512 22,600 -1,800 Descending Boston Center
09:08 40.7136 -72.8728 64° Northeast 445 512 20,800 -1,860 Descending Boston Center
09:09 40.7661 -72.7306 64° Northeast 438 504 18,900 -1,800 Descending Boston Center
09:10 40.8164 -72.5881 65° Northeast 438 504 17,200 -1,740 Descending Boston Center
09:11 40.8686 -72.4539 63° Northeast 419 482 15,400 -1,800 Descending Boston Center
09:12 40.9164 -72.3219 64° Northeast 405 466 13,700 -1,740 Descending Boston Center
09:12 40.9331 -72.2781 63° Northeast 405 466 13,200 -1,320 Descending Boston Center
09:13 40.9600 -72.1928 67° East 393 452 12,400 -1,320 Descending Boston Center
09:14 41.0014 -72.0689 66° East 377 434 11,000 -840 Descending Boston Center
09:15 41.0425 -71.9475 66° East 365 420 10,800 -840 Descending Boston Center
09:16 41.1253 -71.8175 50° Northeast 326 375 9,100 -1,500 Descending Boston Center
09:17 41.2106 -71.7669 24° Northeast 317 365 7,200 -1,800 Descending Boston Center
09:18 41.2914 -71.7217 23° Northeast 310 357 5,400 -1,140 Descending Boston Center
09:19 41.3683 -71.6822 21° North 303 349 5,000 -600 Descending Boston Center
09:20 41.4450 -71.6369 24° Northeast 296 341 4,300 -600 Descending Boston Center
09:21 41.5075 -71.6058 20° North 232 267 3,800 -540 Descending Boston Center
09:23 41.5592 -71.5689 28° Northeast 171 197 3,200 -480 Descending Boston Center
09:24 41.5964 -71.5325 36° Northeast 167 192 2,800 -660 Descending Boston Center
09:25 41.6358 -71.5014 31° Northeast 166 191 1,900 -900 Descending Boston Center
09:26 41.6711 -71.4731 31° Northeast 133 153 1,100 -780 Descending Boston Center
09:27 41.7000 -71.4475 33° Northeast 130 150 400 -720 Descending Boston Center